Latest Weather Observations for Edenhope

IDV60801

Issued at 11:31 pm EDT Monday 2 March 2015 (issued every 30 minutes, with the page automatically refreshed every 10 minutes)

About weather observations | Map of weather stations | Latest weather observations for VIC | Other Formats
Station Details ID: 079099 Name: EDENHOPE AIRPORT Lat: -37.02 Lon: 141.27 Height: 155.0 m
Data from the previous 72 hours. | See also: Recent months at Edenhope
Date/Time
EDT
Temp
°C
App
Temp
°C
Dew
Point
Rel
Hum
%
Delta-T
°C
Wind Press
QNH
hPa
Press
MSL
hPa
Rain
since 9 am
mm
Dir
 
Spd
km/h
Gust
km/h
Spd
kts
Gust
kts
02/11:30pm 16.9 15.2 7.5 54 4.8 SSE 6 7 3 4 - - 0.0
02/11:00pm 17.2 15.3 7.5 53 4.9 SSE 7 11 4 6 - - 0.0
02/10:30pm 17.5 15.8 7.5 52 5.1 SSE 6 7 3 4 - - 0.0
02/10:00pm 17.8 15.1 7.5 51 5.2 SSE 11 17 6 9 - - 0.0
02/09:30pm 17.9 13.7 7.3 50 5.4 S 19 28 10 15 - - 0.0
02/09:00pm 19.4 15.1 7.8 47 6.0 S 20 32 11 17 - - 0.0
02/08:30pm 20.7 18.2 8.0 44 6.6 S 11 17 6 9 - - 0.0
02/08:00pm 21.9 18.8 7.3 39 7.6 S 13 24 7 13 - - 0.0
02/07:30pm 23.6 21.5 6.0 32 9.0 SW 6 11 3 6 - - 0.0
02/07:00pm 24.0 21.7 4.9 29 9.6 SW 6 9 3 5 - - 0.0
02/06:30pm 24.5 21.8 5.8 30 9.6 SSW 9 13 5 7 - - 0.0
02/06:00pm 24.6 21.1 5.4 29 9.8 WSW 13 19 7 10 - - 0.0
02/05:30pm 25.3 22.1 5.0 27 10.3 WSW 11 17 6 9 - - 0.0
02/05:00pm 25.4 22.7 5.6 28 10.2 W 9 15 5 8 - - 0.0
02/04:30pm 24.9 22.8 5.7 29 9.9 WSW 6 9 3 5 - - 0.0
02/04:00pm 25.1 22.3 5.3 28 10.1 WNW 9 15 5 8 - - 0.0
02/03:30pm 25.2 23.0 5.4 28 10.1 NW 6 11 3 6 - - 0.0
02/03:00pm 25.0 22.7 5.7 29 9.9 NW 7 17 4 9 - - 0.0
02/02:30pm 24.8 22.9 6.5 31 9.5 S 6 11 3 6 - - 0.0
02/02:00pm 23.6 21.5 6.8 34 8.7 WNW 7 13 4 7 - - 0.0
02/01:30pm 23.2 21.2 6.9 35 8.5 N 7 15 4 8 - - 0.0
02/01:00pm 22.8 21.0 7.8 38 7.9 N 7 15 4 8 - - 0.0
02/12:30pm 21.3 19.3 7.2 40 7.3 NNE 7 13 4 7 - - 0.0
02/12:00pm 21.0 19.5 8.3 44 6.7 NNE 6 13 3 7 - - 0.0
02/11:30am 20.0 18.1 9.0 49 5.8 N 9 13 5 7 - - 0.0
02/11:00am 17.6 15.1 8.2 54 4.8 NNE 11 17 6 9 - - 0.0
02/10:30am 16.9 14.4 8.3 57 4.4 N 11 19 6 10 - - 0.0
02/10:00am 15.3 13.2 8.3 63 3.6 NE 9 13 5 7 - - 0.0
02/09:30am 13.8 12.1 8.2 69 2.8 NE 7 13 4 7 - - 0.0
02/09:00am 12.0 10.1 7.7 75 2.1 ENE 7 11 4 6 - - 0.0
02/08:30am 11.2 8.9 7.5 78 1.8 ENE 9 13 5 7 - - 0.0
02/08:00am 10.3 8.3 7.0 80 1.6 E 7 11 4 6 - - 0.0
02/07:30am 9.8 7.8 6.9 82 1.4 E 7 9 4 5 - - 0.0
02/07:00am 9.7 7.9 7.0 83 1.3 E 6 9 3 5 - - 0.0
02/06:30am 9.8 7.4 6.9 82 1.4 E 9 13 5 7 - - 0.0
02/06:00am 10.0 7.2 6.9 81 1.5 ESE 11 17 6 9 - - 0.0
02/05:30am 10.3 7.1 6.8 79 1.7 ESE 13 20 7 11 - - 0.0
02/05:00am 10.5 7.3 7.0 79 1.7 ESE 13 19 7 10 - - 0.0
02/04:30am 10.5 7.4 7.2 80 1.6 ESE 13 19 7 10 - - 0.0
02/04:00am 10.6 7.8 7.1 79 1.7 ESE 11 19 6 10 - - 0.0
02/03:30am 10.7 8.0 7.4 80 1.6 ESE 11 19 6 10 - - 0.0
02/03:00am 10.8 7.8 7.5 80 1.6 ESE 13 19 7 10 - - 0.0
02/02:30am 10.9 8.3 7.6 80 1.6 ESE 11 15 6 8 - - 0.0
02/02:00am 11.1 8.5 7.6 79 1.7 ESE 11 17 6 9 - - 0.0
02/01:30am 11.5 8.9 7.8 78 1.8 ESE 11 17 6 9 - - 0.0
02/01:00am 11.9 9.0 8.0 77 1.9 ESE 13 19 7 10 - - 0.0
02/12:30am 12.3 10.1 8.0 75 2.1 ESE 9 13 5 7 - - 0.0
02/12:00am 12.7 10.2 8.0 73 2.3 SSE 11 15 6 8 - - 0.0
 
Date/Time
EDT
Temp
°C
App
Temp
°C
Dew
Point
Rel
Hum
%
Delta-T
°C
Wind Press
QNH
hPa
Press
MSL
hPa
Rain
since 9 am
mm
Dir
 
Spd
km/h
Gust
km/h
Spd
kts
Gust
kts
01/11:30pm 13.3 10.8 8.0 70 2.6 SSE 11 17 6 9 - - 0.0
01/11:00pm 14.0 11.4 7.8 66 3.1 SE 11 17 6 9 - - 0.0
01/10:30pm 14.8 11.8 7.8 63 3.5 SE 13 20 7 11 - - 0.0
01/10:00pm 15.6 12.6 7.9 60 3.9 SE 13 19 7 10 - - 0.0
01/09:30pm 16.4 13.1 7.9 57 4.3 SE 15 22 8 12 - - 0.0
01/09:00pm 17.2 14.3 8.1 55 4.7 SSE 13 19 7 10 - - 0.0
01/08:30pm 18.1 14.7 7.8 51 5.3 SE 15 26 8 14 - - 0.0
01/08:00pm 19.3 16.1 8.3 49 5.7 SE 15 22 8 12 - - 0.0
01/07:30pm 20.4 17.0 7.7 44 6.6 SSE 15 22 8 12 - - 0.0
01/07:00pm 21.4 17.7 8.0 42 7.0 SE 17 22 9 12 - - 0.0
01/06:30pm 21.7 17.4 7.9 41 7.2 SSE 20 30 11 16 - - 0.0
01/06:00pm 22.6 19.5 7.2 37 8.0 SSE 13 22 7 12 - - 0.0
01/05:30pm 23.2 19.7 7.3 36 8.3 SSE 15 24 8 13 - - 0.0
01/05:00pm 22.9 18.7 7.4 37 8.1 S 19 37 10 20 - - 0.0
01/04:30pm 23.1 19.6 7.2 36 8.3 SSE 15 28 8 15 - - 0.0
01/04:00pm 23.1 19.3 7.6 37 8.2 S 17 30 9 16 - - 0.0
01/03:30pm 22.9 19.9 7.8 38 8.0 S 13 28 7 15 - - 0.0
01/03:00pm 22.9 19.5 9.0 41 7.5 S 17 30 9 16 - - 0.0
01/02:30pm 21.6 18.4 8.5 43 7.0 S 15 20 8 11 - - 0.0
01/02:00pm 20.9 17.8 8.9 46 6.4 S 15 24 8 13 - - 0.0
01/01:30pm 21.4 18.6 8.7 44 6.8 SSW 13 24 7 13 - - 0.0
01/01:00pm 20.8 17.5 9.7 49 6.0 S 17 26 9 14 - - 0.0
01/12:30pm 19.7 16.7 10.7 56 4.9 S 17 26 9 14 - - 0.0
01/12:00pm 18.3 16.1 10.9 62 4.0 SSW 13 20 7 11 - - 0.0
01/11:30am 19.3 16.3 10.8 58 4.6 S 17 26 9 14 - - 0.0
01/11:00am 17.6 15.0 11.9 69 3.2 SSE 17 24 9 13 - - 0.0
01/10:30am 16.0 13.7 11.8 76 2.3 SSW 15 22 8 12 - - 0.0
01/10:00am 16.1 13.5 11.9 76 2.3 S 17 26 9 14 - - 0.0
01/09:30am 15.2 13.8 12.2 82 1.6 SSW 11 19 6 10 - - 0.0
01/09:00am 13.7 12.5 11.6 87 1.1 SW 9 13 5 7 - - 2.2
01/08:30am 12.1 11.3 11.0 93 0.6 WSW 6 11 3 6 - - 2.2
01/08:00am 10.5 9.7 9.6 94 0.5 W 4 4 2 2 - - 2.2
01/07:30am 10.3 9.8 9.4 94 0.5 WSW 2 4 1 2 - - 2.2
01/07:00am 10.7 9.9 9.8 94 0.5 WSW 4 4 2 2 - - 2.2
01/06:30am 10.8 10.0 9.7 93 0.6 WSW 4 6 2 3 - - 2.2
01/06:00am 11.1 10.4 10.0 93 0.6 WSW 4 7 2 4 - - 2.2
01/05:30am 11.4 10.3 10.0 91 0.7 WSW 6 7 3 4 - - 2.2
01/05:00am 11.8 10.5 10.0 89 0.9 WSW 7 9 4 5 - - 2.2
01/04:30am 12.5 11.0 10.4 87 1.1 WSW 9 13 5 7 - - 2.2
01/04:00am 13.3 11.4 10.5 83 1.5 WSW 11 17 6 9 - - 2.2
01/03:30am 13.9 11.9 11.4 85 1.3 SW 13 20 7 11 - - 2.2
01/03:00am 13.8 12.1 12.4 91 0.8 WSW 13 19 7 10 - - 2.2
01/02:30am 14.0 13.5 12.6 91 0.8 WSW 7 11 4 6 - - 2.2
01/02:00am 13.9 13.6 12.6 92 0.7 WSW 6 9 3 5 - - 2.2
01/01:30am 13.8 13.3 12.2 90 0.9 SW 6 9 3 5 - - 2.2
01/01:00am 14.4 13.9 12.6 89 1.0 SW 7 15 4 8 - - 2.2
01/12:30am 15.1 13.1 12.8 86 1.3 SW 15 20 8 11 - - 2.2
01/12:00am 15.3 14.2 13.0 86 1.3 SW 11 15 6 8 - - 2.2
 
Date/Time
EDT
Temp
°C
App
Temp
°C
Dew
Point
Rel
Hum
%
Delta-T
°C
Wind Press
QNH
hPa
Press
MSL
hPa
Rain
since 9 am
mm
Dir
 
Spd
km/h
Gust
km/h
Spd
kts
Gust
kts
28/11:30pm 15.4 13.1 12.9 85 1.4 SSW 17 26 9 14 - - 2.2
28/11:00pm 15.8 14.3 13.1 84 1.5 SSW 13 20 7 11 - - 2.2
28/10:30pm 16.4 14.4 13.9 85 1.4 SSW 17 26 9 14 - - 2.2
28/10:00pm 17.4 15.8 14.9 85 1.5 SSW 17 26 9 14 - - 2.2
28/09:30pm 17.8 17.2 15.6 87 1.3 SSW 13 22 7 12 - - 2.2
28/09:00pm 17.8 17.0 16.0 89 1.1 SSW 15 20 8 11 - - 2.2
28/08:30pm 18.0 17.0 16.7 92 0.8 SW 17 30 9 16 - - 2.2
28/08:00pm 19.0 19.1 17.5 91 0.9 SW 13 20 7 11 - - 1.6
28/07:30pm 19.5 20.4 17.6 89 1.2 WSW 9 15 5 8 - - 1.6
28/07:00pm 19.5 19.5 17.1 86 1.5 WSW 13 17 7 9 - - 1.4
28/06:30pm 20.6 20.9 17.0 80 2.2 SW 11 15 6 8 - - 0.4
28/06:00pm 20.8 20.4 17.2 80 2.2 WSW 15 22 8 12 - - 0.4
28/05:30pm 22.3 16.9 16.1 68 3.8 SW 39 61 21 33 - - 0.0
28/05:24pm 22.8 17.0 15.9 65 4.2 SW 41 61 22 33 - - 0.0
28/05:21pm 23.8 17.5 15.6 60 5.0 WSW 43 59 23 32 - - 0.0
28/05:11pm 28.9 24.5 12.8 37 9.5 WSW 28 57 15 31 - - 0.0
28/05:00pm 30.1 25.9 12.5 34 10.4 W 26 37 14 20 - - 0.0
28/04:30pm 32.9 29.1 12.5 29 12.2 WSW 24 35 13 19 - - 0.0
28/04:00pm 32.9 28.6 12.0 28 12.4 WSW 26 37 14 20 - - 0.0
28/03:30pm 33.7 29.1 10.9 25 13.4 W 26 44 14 24 - - 0.0
28/03:00pm 34.4 30.2 9.6 22 14.3 W 22 41 12 22 - - 0.0
28/02:43pm 34.3 29.7 9.5 22 14.3 WNW 24 46 13 25 - - 0.0
28/02:30pm 33.7 28.7 9.7 23 13.8 WNW 26 39 14 21 - - 0.0
28/02:00pm 32.9 27.6 9.7 24 13.3 WNW 28 39 15 21 - - 0.0
28/01:30pm 34.3 29.5 10.2 23 14.0 WNW 26 43 14 23 - - 0.0
28/01:00pm 33.3 27.9 9.4 23 13.7 NW 28 46 15 25 - - 0.0
28/12:59pm 33.3 28.0 10.0 24 13.5 NW 28 46 15 25 - - 0.0
28/12:30pm 33.1 28.2 9.8 24 13.4 NNW 26 39 14 21 - - 0.0
28/12:00pm 31.4 26.9 10.2 27 12.2 N 24 33 13 18 - - 0.0
28/11:30am 30.1 24.6 10.6 30 11.2 N 30 39 16 21 - - 0.0
28/11:00am 28.6 25.1 10.8 33 10.2 NNE 20 35 11 19 - - 0.0
28/10:30am 25.5 22.4 11.7 42 7.9 NNE 19 28 10 15 - - 0.0
28/10:00am 23.9 21.6 11.6 46 7.0 NNE 15 26 8 14 - - 0.0
28/09:30am 22.6 20.6 12.8 54 5.6 NNE 15 22 8 12 - - 0.0
28/09:00am 21.5 21.0 13.7 61 4.5 NE 9 15 5 8 - - 0.0
28/08:30am 20.5 19.9 13.5 64 4.0 NE 9 19 5 10 - - 0.0
28/08:00am 19.8 18.4 13.3 66 3.7 ENE 13 17 7 9 - - 0.0
28/07:30am 19.7 18.3 13.4 67 3.6 ENE 13 19 7 10 - - 0.0
28/07:00am 20.9 20.5 13.1 61 4.5 SW 7 15 4 8 - - 0.0
28/06:30am 20.4 17.9 13.4 64 4.0 NNE 19 32 10 17 - - 0.0
28/06:00am 20.4 19.4 13.4 64 4.0 NNE 11 17 6 9 - - 0.0
28/05:30am 20.3 18.7 12.8 62 4.3 NNE 13 19 7 10 - - 0.0
28/05:00am 20.2 18.1 12.4 61 4.4 NE 15 19 8 10 - - 0.0
28/04:30am 20.2 17.4 12.7 62 4.3 NNE 19 24 10 13 - - 0.0
28/04:00am 20.1 18.4 12.6 62 4.3 NNE 13 19 7 10 - - 0.0
28/03:30am 19.8 18.9 12.6 63 4.1 NE 9 13 5 7 - - 0.0
28/03:00am 19.4 18.9 12.7 65 3.8 NE 7 9 4 5 - - 0.0
28/02:30am 19.8 19.2 12.3 62 4.2 NE 7 11 4 6 - - 0.0
28/02:00am 19.8 18.8 12.3 62 4.2 E 9 13 5 7 - - 0.0
28/01:30am 19.8 19.2 12.3 62 4.2 ENE 7 11 4 6 - - 0.0
28/01:00am 19.9 19.4 12.7 63 4.1 E 7 13 4 7 - - 0.0
28/12:30am 20.1 19.1 12.3 61 4.4 ESE 9 13 5 7 - - 0.0
28/12:00am 20.4 19.7 12.1 59 4.7 ESE 7 9 4 5 - - 0.0

Other Formats:

Comma delimited format used in spreadsheet applications
http://www.bom.gov.au/fwo/IDV60801/IDV60801.95832.axf

JavaScript Object Notation format (JSON) in row-major order
http://www.bom.gov.au/fwo/IDV60801/IDV60801.95832.json